LFRK/CFR METAR and TAF weather

Enter ICAO airport designator
Station Type Date Time Source
LFRK METAR 2020/01/22 15:30 UTC NOAA

LFRK 221530Z AUTO 06005KT 030V090 CAVOK 05/M01 Q1034 NOSIG


Station Type Date Time Source
LFRK Decoded METAR 2020/01/22 15:30 UTC NOAA

Caen, France (LFRK) 49-11N 000-27W 67M
Jan 22, 2020 - 10:30 AM EST / 2020.01.22 1530 UTC
Wind: from the ENE (060 degrees) at 6 MPH (5 KT) (direction variable):0
Visibility: greater than 7 mile(s):0
Temperature: 41 F (5 C)
Dew Point: 30 F (-1 C)
Relative Humidity: 65%
Pressure (altimeter): 30.53 in. Hg (1034 hPa)
ob: LFRK 221530Z AUTO 06005KT 030V090 CAVOK 05/M01 Q1034 NOSIG
cycle: 15

Station Type Date Time Source
LFRK TAF UTC NOAA

Error!

Example: see airport list